sensor_id;sensor_type;location;lat;lon;timestamp;P1;durP1;ratioP1;P2;durP2;ratioP2
73938;SDS011;62291;47.554;8.504;2024-02-21T00:02:18;15.07;;;6.97;;
73938;SDS011;62291;47.554;8.504;2024-02-21T00:04:44;14.00;;;7.03;;
73938;SDS011;62291;47.554;8.504;2024-02-21T00:07:09;10.95;;;5.97;;
73938;SDS011;62291;47.554;8.504;2024-02-21T00:09:35;16.52;;;7.00;;
73938;SDS011;62291;47.554;8.504;2024-02-21T00:12:01;13.52;;;6.85;;
73938;SDS011;62291;47.554;8.504;2024-02-21T00:14:27;15.75;;;6.55;;
73938;SDS011;62291;47.554;8.504;2024-02-21T00:16:53;16.55;;;6.25;;
73938;SDS011;62291;47.554;8.504;2024-02-21T00:19:18;12.38;;;5.95;;
73938;SDS011;62291;47.554;8.504;2024-02-21T00:21:44;17.70;;;6.72;;
73938;SDS011;62291;47.554;8.504;2024-02-21T00:24:09;13.07;;;6.40;;
73938;SDS011;62291;47.554;8.504;2024-02-21T00:26:35;16.30;;;6.65;;
73938;SDS011;62291;47.554;8.504;2024-02-21T00:29:01;14.95;;;6.25;;
73938;SDS011;62291;47.554;8.504;2024-02-21T00:31:27;13.73;;;6.53;;
73938;SDS011;62291;47.554;8.504;2024-02-21T00:33:52;23.40;;;7.28;;
73938;SDS011;62291;47.554;8.504;2024-02-21T00:36:18;18.05;;;7.05;;
73938;SDS011;62291;47.554;8.504;2024-02-21T00:38:44;15.90;;;6.78;;
73938;SDS011;62291;47.554;8.504;2024-02-21T00:41:10;14.05;;;6.63;;
73938;SDS011;62291;47.554;8.504;2024-02-21T00:43:35;15.90;;;7.00;;
73938;SDS011;62291;47.554;8.504;2024-02-21T00:46:01;16.17;;;7.40;;
73938;SDS011;62291;47.554;8.504;2024-02-21T00:48:27;17.58;;;7.60;;
73938;SDS011;62291;47.554;8.504;2024-02-21T00:50:52;19.77;;;7.30;;
73938;SDS011;62291;47.554;8.504;2024-02-21T00:53:18;15.38;;;8.02;;
73938;SDS011;62291;47.554;8.504;2024-02-21T00:55:44;15.25;;;7.20;;
73938;SDS011;62291;47.554;8.504;2024-02-21T00:58:09;17.38;;;7.43;;
73938;SDS011;62291;47.554;8.504;2024-02-21T01:00:35;12.43;;;7.75;;
73938;SDS011;62291;47.554;8.504;2024-02-21T01:03:01;17.30;;;8.50;;
73938;SDS011;62291;47.554;8.504;2024-02-21T01:05:27;12.75;;;7.10;;
73938;SDS011;62291;47.554;8.504;2024-02-21T01:07:54;13.98;;;7.18;;
73938;SDS011;62291;47.554;8.504;2024-02-21T01:10:19;16.38;;;6.85;;
73938;SDS011;62291;47.554;8.504;2024-02-21T01:12:45;19.88;;;8.18;;
73938;SDS011;62291;47.554;8.504;2024-02-21T01:15:11;14.35;;;7.78;;
73938;SDS011;62291;47.554;8.504;2024-02-21T01:17:37;18.30;;;8.23;;
73938;SDS011;62291;47.554;8.504;2024-02-21T01:20:03;15.50;;;7.82;;
73938;SDS011;62291;47.554;8.504;2024-02-21T01:22:33;17.08;;;7.63;;
73938;SDS011;62291;47.554;8.504;2024-02-21T01:24:58;17.00;;;8.55;;
73938;SDS011;62291;47.554;8.504;2024-02-21T01:27:24;19.38;;;8.70;;
73938;SDS011;62291;47.554;8.504;2024-02-21T01:29:50;19.38;;;8.25;;
73938;SDS011;62291;47.554;8.504;2024-02-21T01:32:16;17.83;;;8.40;;
73938;SDS011;62291;47.554;8.504;2024-02-21T01:34:41;22.42;;;8.70;;
73938;SDS011;62291;47.554;8.504;2024-02-21T01:37:07;16.58;;;8.32;;
73938;SDS011;62291;47.554;8.504;2024-02-21T01:39:33;17.67;;;9.10;;
73938;SDS011;62291;47.554;8.504;2024-02-21T01:41:59;17.73;;;9.60;;
73938;SDS011;62291;47.554;8.504;2024-02-21T01:44:25;16.63;;;8.15;;
73938;SDS011;62291;47.554;8.504;2024-02-21T01:46:51;20.90;;;8.65;;
73938;SDS011;62291;47.554;8.504;2024-02-21T01:49:20;16.98;;;8.15;;
73938;SDS011;62291;47.554;8.504;2024-02-21T01:51:47;18.02;;;8.27;;
73938;SDS011;62291;47.554;8.504;2024-02-21T01:54:16;23.38;;;8.85;;
73938;SDS011;62291;47.554;8.504;2024-02-21T01:56:43;15.70;;;8.23;;
73938;SDS011;62291;47.554;8.504;2024-02-21T01:59:11;16.02;;;8.13;;
73938;SDS011;62291;47.554;8.504;2024-02-21T02:01:38;16.70;;;8.43;;
73938;SDS011;62291;47.554;8.504;2024-02-21T02:04:04;18.60;;;9.20;;
73938;SDS011;62291;47.554;8.504;2024-02-21T02:06:31;18.17;;;9.10;;
73938;SDS011;62291;47.554;8.504;2024-02-21T02:08:57;13.57;;;8.52;;
73938;SDS011;62291;47.554;8.504;2024-02-21T02:11:22;20.00;;;8.60;;
73938;SDS011;62291;47.554;8.504;2024-02-21T02:13:48;16.08;;;8.40;;
73938;SDS011;62291;47.554;8.504;2024-02-21T02:16:14;16.52;;;8.95;;
73938;SDS011;62291;47.554;8.504;2024-02-21T02:18:40;20.63;;;9.02;;
73938;SDS011;62291;47.554;8.504;2024-02-21T02:21:07;15.88;;;8.65;;
73938;SDS011;62291;47.554;8.504;2024-02-21T02:23:37;16.75;;;8.85;;
73938;SDS011;62291;47.554;8.504;2024-02-21T02:26:03;20.02;;;10.52;;
73938;SDS011;62291;47.554;8.504;2024-02-21T02:28:32;15.77;;;8.93;;
73938;SDS011;62291;47.554;8.504;2024-02-21T02:30:58;16.83;;;9.10;;
73938;SDS011;62291;47.554;8.504;2024-02-21T02:33:23;17.27;;;9.02;;
73938;SDS011;62291;47.554;8.504;2024-02-21T02:35:49;16.50;;;9.10;;
73938;SDS011;62291;47.554;8.504;2024-02-21T02:38:15;16.33;;;8.43;;
73938;SDS011;62291;47.554;8.504;2024-02-21T02:40:41;18.55;;;8.75;;
73938;SDS011;62291;47.554;8.504;2024-02-21T02:43:07;15.57;;;8.27;;
73938;SDS011;62291;47.554;8.504;2024-02-21T02:45:33;19.80;;;9.02;;
73938;SDS011;62291;47.554;8.504;2024-02-21T02:47:59;18.10;;;9.90;;
73938;SDS011;62291;47.554;8.504;2024-02-21T02:50:25;15.43;;;7.93;;
73938;SDS011;62291;47.554;8.504;2024-02-21T02:52:52;12.68;;;6.95;;
73938;SDS011;62291;47.554;8.504;2024-02-21T02:55:18;12.45;;;7.05;;
73938;SDS011;62291;47.554;8.504;2024-02-21T02:57:44;19.23;;;7.72;;
73938;SDS011;62291;47.554;8.504;2024-02-21T03:00:10;16.85;;;9.25;;
73938;SDS011;62291;47.554;8.504;2024-02-21T03:02:37;16.63;;;8.13;;
73938;SDS011;62291;47.554;8.504;2024-02-21T03:05:12;16.33;;;8.52;;
73938;SDS011;62291;47.554;8.504;2024-02-21T03:07:42;17.15;;;8.18;;
73938;SDS011;62291;47.554;8.504;2024-02-21T03:10:08;16.02;;;8.60;;
73938;SDS011;62291;47.554;8.504;2024-02-21T03:12:35;14.07;;;8.60;;
73938;SDS011;62291;47.554;8.504;2024-02-21T03:15:00;16.38;;;8.32;;
73938;SDS011;62291;47.554;8.504;2024-02-21T03:17:26;18.88;;;9.57;;
73938;SDS011;62291;47.554;8.504;2024-02-21T03:19:53;16.33;;;8.35;;
73938;SDS011;62291;47.554;8.504;2024-02-21T03:22:20;15.38;;;9.27;;
73938;SDS011;62291;47.554;8.504;2024-02-21T03:24:46;20.92;;;10.30;;
73938;SDS011;62291;47.554;8.504;2024-02-21T03:27:12;14.32;;;8.57;;
73938;SDS011;62291;47.554;8.504;2024-02-21T03:29:37;13.52;;;8.52;;
73938;SDS011;62291;47.554;8.504;2024-02-21T03:32:03;15.35;;;8.23;;
73938;SDS011;62291;47.554;8.504;2024-02-21T03:34:29;15.57;;;8.32;;
73938;SDS011;62291;47.554;8.504;2024-02-21T03:36:55;12.82;;;7.43;;
73938;SDS011;62291;47.554;8.504;2024-02-21T03:39:21;14.02;;;9.48;;
73938;SDS011;62291;47.554;8.504;2024-02-21T03:41:47;13.10;;;8.60;;
73938;SDS011;62291;47.554;8.504;2024-02-21T03:44:12;13.35;;;8.15;;
73938;SDS011;62291;47.554;8.504;2024-02-21T03:46:38;17.58;;;8.90;;
73938;SDS011;62291;47.554;8.504;2024-02-21T03:49:04;16.95;;;9.23;;
73938;SDS011;62291;47.554;8.504;2024-02-21T03:51:29;17.58;;;9.13;;
73938;SDS011;62291;47.554;8.504;2024-02-21T03:53:56;15.50;;;8.80;;
73938;SDS011;62291;47.554;8.504;2024-02-21T03:56:21;16.83;;;8.70;;
73938;SDS011;62291;47.554;8.504;2024-02-21T03:58:47;15.15;;;9.02;;
73938;SDS011;62291;47.554;8.504;2024-02-21T04:01:14;15.50;;;7.95;;
73938;SDS011;62291;47.554;8.504;2024-02-21T04:03:40;18.95;;;8.57;;
73938;SDS011;62291;47.554;8.504;2024-02-21T04:06:07;14.82;;;8.30;;
73938;SDS011;62291;47.554;8.504;2024-02-21T04:08:33;19.27;;;9.43;;
73938;SDS011;62291;47.554;8.504;2024-02-21T04:10:58;13.15;;;8.98;;
73938;SDS011;62291;47.554;8.504;2024-02-21T04:13:24;10.63;;;7.47;;
73938;SDS011;62291;47.554;8.504;2024-02-21T04:15:50;14.52;;;9.27;;
73938;SDS011;62291;47.554;8.504;2024-02-21T04:18:16;13.32;;;8.50;;
73938;SDS011;62291;47.554;8.504;2024-02-21T04:20:42;15.65;;;9.80;;
73938;SDS011;62291;47.554;8.504;2024-02-21T04:23:08;19.50;;;10.23;;
73938;SDS011;62291;47.554;8.504;2024-02-21T04:25:34;17.60;;;9.48;;
73938;SDS011;62291;47.554;8.504;2024-02-21T04:28:00;22.25;;;9.65;;
73938;SDS011;62291;47.554;8.504;2024-02-21T04:30:25;20.00;;;9.23;;
73938;SDS011;62291;47.554;8.504;2024-02-21T04:32:51;21.45;;;9.02;;
73938;SDS011;62291;47.554;8.504;2024-02-21T04:35:17;17.50;;;9.30;;
73938;SDS011;62291;47.554;8.504;2024-02-21T04:37:42;19.20;;;10.32;;
73938;SDS011;62291;47.554;8.504;2024-02-21T04:40:08;23.27;;;10.43;;
73938;SDS011;62291;47.554;8.504;2024-02-21T04:42:34;27.27;;;10.07;;
73938;SDS011;62291;47.554;8.504;2024-02-21T04:45:00;17.60;;;9.13;;
73938;SDS011;62291;47.554;8.504;2024-02-21T04:47:26;18.85;;;8.45;;
73938;SDS011;62291;47.554;8.504;2024-02-21T04:49:52;22.38;;;8.63;;
73938;SDS011;62291;47.554;8.504;2024-02-21T04:52:17;20.00;;;9.77;;
73938;SDS011;62291;47.554;8.504;2024-02-21T04:54:43;27.17;;;10.40;;
73938;SDS011;62291;47.554;8.504;2024-02-21T04:57:09;22.33;;;10.45;;
73938;SDS011;62291;47.554;8.504;2024-02-21T04:59:41;19.60;;;10.60;;
73938;SDS011;62291;47.554;8.504;2024-02-21T05:02:10;21.13;;;10.02;;
73938;SDS011;62291;47.554;8.504;2024-02-21T05:04:36;20.25;;;10.60;;
73938;SDS011;62291;47.554;8.504;2024-02-21T05:07:03;22.15;;;10.43;;
73938;SDS011;62291;47.554;8.504;2024-02-21T05:09:29;19.63;;;9.75;;
73938;SDS011;62291;47.554;8.504;2024-02-21T05:11:55;21.58;;;11.35;;
73938;SDS011;62291;47.554;8.504;2024-02-21T05:14:20;21.85;;;10.35;;
73938;SDS011;62291;47.554;8.504;2024-02-21T05:16:46;20.30;;;10.25;;
73938;SDS011;62291;47.554;8.504;2024-02-21T05:19:12;22.58;;;10.43;;
73938;SDS011;62291;47.554;8.504;2024-02-21T05:21:37;27.52;;;11.32;;
73938;SDS011;62291;47.554;8.504;2024-02-21T05:24:03;18.77;;;9.52;;
73938;SDS011;62291;47.554;8.504;2024-02-21T05:26:29;20.05;;;9.75;;
73938;SDS011;62291;47.554;8.504;2024-02-21T05:28:55;20.67;;;10.25;;
73938;SDS011;62291;47.554;8.504;2024-02-21T05:31:21;17.27;;;9.75;;
73938;SDS011;62291;47.554;8.504;2024-02-21T05:33:46;23.10;;;10.45;;
73938;SDS011;62291;47.554;8.504;2024-02-21T05:36:12;21.23;;;10.50;;
73938;SDS011;62291;47.554;8.504;2024-02-21T05:38:38;20.95;;;10.10;;
73938;SDS011;62291;47.554;8.504;2024-02-21T05:41:04;15.82;;;9.65;;
73938;SDS011;62291;47.554;8.504;2024-02-21T05:43:30;21.20;;;10.75;;
73938;SDS011;62291;47.554;8.504;2024-02-21T05:45:56;18.10;;;10.43;;
73938;SDS011;62291;47.554;8.504;2024-02-21T05:48:22;19.83;;;10.73;;
73938;SDS011;62291;47.554;8.504;2024-02-21T05:50:48;22.67;;;11.45;;
73938;SDS011;62291;47.554;8.504;2024-02-21T05:53:14;19.25;;;11.13;;
73938;SDS011;62291;47.554;8.504;2024-02-21T05:55:40;23.00;;;10.55;;
73938;SDS011;62291;47.554;8.504;2024-02-21T05:58:06;24.35;;;10.73;;
73938;SDS011;62291;47.554;8.504;2024-02-21T06:00:35;25.98;;;10.52;;
73938;SDS011;62291;47.554;8.504;2024-02-21T06:03:02;27.70;;;11.27;;
73938;SDS011;62291;47.554;8.504;2024-02-21T06:05:27;21.38;;;10.52;;
73938;SDS011;62291;47.554;8.504;2024-02-21T06:07:53;22.67;;;11.30;;
73938;SDS011;62291;47.554;8.504;2024-02-21T06:10:19;30.33;;;13.57;;
73938;SDS011;62291;47.554;8.504;2024-02-21T06:12:45;21.88;;;10.45;;
73938;SDS011;62291;47.554;8.504;2024-02-21T06:15:10;21.95;;;9.85;;
73938;SDS011;62291;47.554;8.504;2024-02-21T06:17:36;18.20;;;9.13;;
73938;SDS011;62291;47.554;8.504;2024-02-21T06:20:02;17.80;;;10.15;;
73938;SDS011;62291;47.554;8.504;2024-02-21T06:22:28;20.40;;;12.23;;
73938;SDS011;62291;47.554;8.504;2024-02-21T06:24:54;21.08;;;12.82;;
73938;SDS011;62291;47.554;8.504;2024-02-21T06:27:19;22.30;;;13.20;;
73938;SDS011;62291;47.554;8.504;2024-02-21T06:29:45;18.70;;;12.02;;
73938;SDS011;62291;47.554;8.504;2024-02-21T06:32:11;22.42;;;11.82;;
73938;SDS011;62291;47.554;8.504;2024-02-21T06:34:36;24.95;;;12.85;;
73938;SDS011;62291;47.554;8.504;2024-02-21T06:37:02;22.73;;;11.90;;
73938;SDS011;62291;47.554;8.504;2024-02-21T06:39:29;20.73;;;12.80;;
73938;SDS011;62291;47.554;8.504;2024-02-21T06:41:55;27.77;;;13.43;;
73938;SDS011;62291;47.554;8.504;2024-02-21T06:44:21;25.42;;;13.25;;
73938;SDS011;62291;47.554;8.504;2024-02-21T06:46:47;26.20;;;12.20;;
73938;SDS011;62291;47.554;8.504;2024-02-21T06:49:13;16.15;;;10.18;;
73938;SDS011;62291;47.554;8.504;2024-02-21T06:51:43;24.50;;;11.93;;
73938;SDS011;62291;47.554;8.504;2024-02-21T06:54:09;21.42;;;11.15;;
73938;SDS011;62291;47.554;8.504;2024-02-21T06:56:35;15.07;;;9.85;;
73938;SDS011;62291;47.554;8.504;2024-02-21T06:59:02;16.60;;;9.25;;
73938;SDS011;62291;47.554;8.504;2024-02-21T07:01:28;22.08;;;11.43;;
73938;SDS011;62291;47.554;8.504;2024-02-21T07:03:55;31.55;;;12.73;;
73938;SDS011;62291;47.554;8.504;2024-02-21T07:06:21;22.27;;;11.60;;
73938;SDS011;62291;47.554;8.504;2024-02-21T07:08:47;12.77;;;8.45;;
73938;SDS011;62291;47.554;8.504;2024-02-21T07:11:13;17.40;;;9.65;;
73938;SDS011;62291;47.554;8.504;2024-02-21T07:13:38;17.08;;;9.50;;
73938;SDS011;62291;47.554;8.504;2024-02-21T07:16:04;17.30;;;9.65;;
73938;SDS011;62291;47.554;8.504;2024-02-21T07:18:31;18.63;;;9.18;;
73938;SDS011;62291;47.554;8.504;2024-02-21T07:20:56;13.45;;;7.20;;
73938;SDS011;62291;47.554;8.504;2024-02-21T07:23:23;12.23;;;7.25;;
73938;SDS011;62291;47.554;8.504;2024-02-21T07:25:49;13.43;;;6.95;;
73938;SDS011;62291;47.554;8.504;2024-02-21T07:28:14;17.08;;;6.15;;
73938;SDS011;62291;47.554;8.504;2024-02-21T07:30:41;11.40;;;5.63;;
73938;SDS011;62291;47.554;8.504;2024-02-21T07:33:07;15.85;;;5.82;;
73938;SDS011;62291;47.554;8.504;2024-02-21T07:35:33;14.90;;;5.70;;
73938;SDS011;62291;47.554;8.504;2024-02-21T07:37:58;12.00;;;5.50;;
73938;SDS011;62291;47.554;8.504;2024-02-21T07:40:24;10.90;;;5.28;;
73938;SDS011;62291;47.554;8.504;2024-02-21T07:42:50;9.00;;;4.65;;
73938;SDS011;62291;47.554;8.504;2024-02-21T07:45:16;9.63;;;5.20;;
73938;SDS011;62291;47.554;8.504;2024-02-21T07:47:43;10.82;;;4.60;;
73938;SDS011;62291;47.554;8.504;2024-02-21T07:50:09;10.73;;;4.82;;
73938;SDS011;62291;47.554;8.504;2024-02-21T07:52:35;8.32;;;4.57;;
73938;SDS011;62291;47.554;8.504;2024-02-21T07:55:00;14.40;;;5.35;;
73938;SDS011;62291;47.554;8.504;2024-02-21T07:57:26;14.00;;;6.13;;
73938;SDS011;62291;47.554;8.504;2024-02-21T07:59:52;13.38;;;5.32;;
73938;SDS011;62291;47.554;8.504;2024-02-21T08:02:18;14.35;;;6.63;;
73938;SDS011;62291;47.554;8.504;2024-02-21T08:04:43;13.00;;;5.22;;
73938;SDS011;62291;47.554;8.504;2024-02-21T08:07:09;9.80;;;5.18;;
73938;SDS011;62291;47.554;8.504;2024-02-21T08:09:35;10.68;;;5.07;;
73938;SDS011;62291;47.554;8.504;2024-02-21T08:12:03;10.73;;;4.90;;
73938;SDS011;62291;47.554;8.504;2024-02-21T08:14:29;12.23;;;5.00;;
73938;SDS011;62291;47.554;8.504;2024-02-21T08:16:55;8.40;;;5.10;;
73938;SDS011;62291;47.554;8.504;2024-02-21T08:19:21;9.45;;;4.65;;
73938;SDS011;62291;47.554;8.504;2024-02-21T08:21:50;11.18;;;5.38;;
73938;SDS011;62291;47.554;8.504;2024-02-21T08:24:15;14.82;;;5.63;;
73938;SDS011;62291;47.554;8.504;2024-02-21T08:26:42;9.82;;;4.88;;
73938;SDS011;62291;47.554;8.504;2024-02-21T08:29:09;11.55;;;5.15;;
73938;SDS011;62291;47.554;8.504;2024-02-21T08:31:36;13.27;;;5.40;;
73938;SDS011;62291;47.554;8.504;2024-02-21T08:34:02;10.45;;;5.57;;
73938;SDS011;62291;47.554;8.504;2024-02-21T08:36:34;8.85;;;5.07;;
73938;SDS011;62291;47.554;8.504;2024-02-21T08:41:28;9.07;;;4.90;;
73938;SDS011;62291;47.554;8.504;2024-02-21T08:43:56;9.77;;;5.28;;
73938;SDS011;62291;47.554;8.504;2024-02-21T08:46:22;7.90;;;5.00;;
73938;SDS011;62291;47.554;8.504;2024-02-21T08:48:51;6.90;;;5.30;;
73938;SDS011;62291;47.554;8.504;2024-02-21T08:51:17;9.95;;;5.97;;
73938;SDS011;62291;47.554;8.504;2024-02-21T08:53:44;10.40;;;5.35;;
73938;SDS011;62291;47.554;8.504;2024-02-21T08:56:10;10.85;;;5.50;;
73938;SDS011;62291;47.554;8.504;2024-02-21T08:58:36;9.85;;;5.40;;
73938;SDS011;62291;47.554;8.504;2024-02-21T09:01:08;10.40;;;5.50;;
73938;SDS011;62291;47.554;8.504;2024-02-21T09:03:37;7.80;;;4.72;;
73938;SDS011;62291;47.554;8.504;2024-02-21T09:06:03;8.30;;;5.30;;
73938;SDS011;62291;47.554;8.504;2024-02-21T09:08:33;6.95;;;5.10;;
73938;SDS011;62291;47.554;8.504;2024-02-21T09:11:02;9.10;;;5.10;;
73938;SDS011;62291;47.554;8.504;2024-02-21T09:13:28;7.97;;;5.50;;
73938;SDS011;62291;47.554;8.504;2024-02-21T09:15:55;9.98;;;5.88;;
73938;SDS011;62291;47.554;8.504;2024-02-21T09:18:20;10.45;;;5.35;;
73938;SDS011;62291;47.554;8.504;2024-02-21T09:20:46;10.93;;;6.03;;
73938;SDS011;62291;47.554;8.504;2024-02-21T09:23:12;11.30;;;6.28;;
73938;SDS011;62291;47.554;8.504;2024-02-21T09:25:38;11.18;;;6.35;;
73938;SDS011;62291;47.554;8.504;2024-02-21T09:28:05;10.50;;;6.82;;
73938;SDS011;62291;47.554;8.504;2024-02-21T09:30:34;11.48;;;6.45;;
73938;SDS011;62291;47.554;8.504;2024-02-21T09:33:00;11.38;;;6.50;;
73938;SDS011;62291;47.554;8.504;2024-02-21T09:35:27;10.40;;;6.05;;
73938;SDS011;62291;47.554;8.504;2024-02-21T09:37:53;11.85;;;6.97;;
73938;SDS011;62291;47.554;8.504;2024-02-21T09:40:20;15.15;;;6.60;;
73938;SDS011;62291;47.554;8.504;2024-02-21T09:42:46;15.60;;;6.30;;
73938;SDS011;62291;47.554;8.504;2024-02-21T09:45:19;9.75;;;6.78;;
73938;SDS011;62291;47.554;8.504;2024-02-21T09:50:29;11.68;;;6.53;;
73938;SDS011;62291;47.554;8.504;2024-02-21T09:52:57;12.32;;;5.85;;
73938;SDS011;62291;47.554;8.504;2024-02-21T09:55:29;8.20;;;6.05;;
73938;SDS011;62291;47.554;8.504;2024-02-21T09:57:59;7.43;;;5.43;;
73938;SDS011;62291;47.554;8.504;2024-02-21T10:00:28;11.43;;;6.20;;
73938;SDS011;62291;47.554;8.504;2024-02-21T10:02:54;11.23;;;5.97;;
73938;SDS011;62291;47.554;8.504;2024-02-21T10:05:20;10.88;;;5.97;;
73938;SDS011;62291;47.554;8.504;2024-02-21T10:07:46;10.75;;;6.05;;
73938;SDS011;62291;47.554;8.504;2024-02-21T10:10:14;10.88;;;6.03;;
73938;SDS011;62291;47.554;8.504;2024-02-21T10:12:48;13.85;;;6.05;;
73938;SDS011;62291;47.554;8.504;2024-02-21T10:15:22;10.77;;;6.43;;
73938;SDS011;62291;47.554;8.504;2024-02-21T10:17:59;9.23;;;5.88;;
73938;SDS011;62291;47.554;8.504;2024-02-21T10:20:26;11.98;;;6.00;;
73938;SDS011;62291;47.554;8.504;2024-02-21T10:23:02;8.57;;;5.30;;
73938;SDS011;62291;47.554;8.504;2024-02-21T10:25:33;9.65;;;5.78;;
73938;SDS011;62291;47.554;8.504;2024-02-21T10:28:13;8.52;;;5.32;;
73938;SDS011;62291;47.554;8.504;2024-02-21T10:30:49;12.57;;;5.93;;
73938;SDS011;62291;47.554;8.504;2024-02-21T10:33:17;5.40;;;3.10;;
73938;SDS011;62291;47.554;8.504;2024-02-21T10:35:47;5.18;;;3.38;;
73938;SDS011;62291;47.554;8.504;2024-02-21T10:38:14;3.25;;;2.10;;
73938;SDS011;62291;47.554;8.504;2024-02-21T10:40:40;2.92;;;1.75;;
73938;SDS011;62291;47.554;8.504;2024-02-21T10:43:06;3.22;;;2.28;;
73938;SDS011;62291;47.554;8.504;2024-02-21T10:45:37;6.80;;;2.05;;
73938;SDS011;62291;47.554;8.504;2024-02-21T10:48:16;3.70;;;1.88;;
73938;SDS011;62291;47.554;8.504;2024-02-21T10:50:57;5.78;;;2.13;;
73938;SDS011;62291;47.554;8.504;2024-02-21T10:56:30;4.63;;;2.25;;
73938;SDS011;62291;47.554;8.504;2024-02-21T10:59:00;2.90;;;2.03;;
73938;SDS011;62291;47.554;8.504;2024-02-21T11:01:29;5.68;;;2.35;;
73938;SDS011;62291;47.554;8.504;2024-02-21T11:04:18;3.30;;;1.90;;
73938;SDS011;62291;47.554;8.504;2024-02-21T11:06:44;6.88;;;2.47;;
73938;SDS011;62291;47.554;8.504;2024-02-21T11:09:10;5.38;;;2.15;;
73938;SDS011;62291;47.554;8.504;2024-02-21T11:11:40;5.00;;;2.65;;
73938;SDS011;62291;47.554;8.504;2024-02-21T11:14:07;3.53;;;2.15;;
73938;SDS011;62291;47.554;8.504;2024-02-21T11:19:07;5.82;;;2.05;;
73938;SDS011;62291;47.554;8.504;2024-02-21T11:21:37;6.30;;;2.13;;
73938;SDS011;62291;47.554;8.504;2024-02-21T11:24:03;5.20;;;2.30;;
73938;SDS011;62291;47.554;8.504;2024-02-21T11:26:30;9.07;;;4.60;;
73938;SDS011;62291;47.554;8.504;2024-02-21T11:29:00;3.97;;;2.58;;
73938;SDS011;62291;47.554;8.504;2024-02-21T11:31:38;4.15;;;2.20;;
73938;SDS011;62291;47.554;8.504;2024-02-21T11:34:08;4.75;;;2.55;;
73938;SDS011;62291;47.554;8.504;2024-02-21T11:36:35;3.08;;;2.10;;
73938;SDS011;62291;47.554;8.504;2024-02-21T11:39:04;4.47;;;2.08;;
73938;SDS011;62291;47.554;8.504;2024-02-21T11:41:31;4.10;;;2.00;;
73938;SDS011;62291;47.554;8.504;2024-02-21T11:43:57;4.43;;;1.92;;
73938;SDS011;62291;47.554;8.504;2024-02-21T11:46:22;2.60;;;1.90;;
73938;SDS011;62291;47.554;8.504;2024-02-21T11:48:49;4.82;;;2.13;;
73938;SDS011;62291;47.554;8.504;2024-02-21T11:51:21;3.83;;;1.98;;
73938;SDS011;62291;47.554;8.504;2024-02-21T11:53:49;3.50;;;2.00;;
73938;SDS011;62291;47.554;8.504;2024-02-21T11:56:16;4.45;;;2.25;;
73938;SDS011;62291;47.554;8.504;2024-02-21T11:58:42;2.58;;;1.77;;
73938;SDS011;62291;47.554;8.504;2024-02-21T12:01:08;3.28;;;1.85;;
73938;SDS011;62291;47.554;8.504;2024-02-21T12:03:33;4.82;;;2.13;;
73938;SDS011;62291;47.554;8.504;2024-02-21T12:06:01;3.33;;;1.60;;
73938;SDS011;62291;47.554;8.504;2024-02-21T12:08:28;4.03;;;1.73;;
73938;SDS011;62291;47.554;8.504;2024-02-21T12:11:22;4.45;;;1.95;;
73938;SDS011;62291;47.554;8.504;2024-02-21T12:14:04;4.50;;;2.00;;
73938;SDS011;62291;47.554;8.504;2024-02-21T12:16:30;3.47;;;1.90;;
73938;SDS011;62291;47.554;8.504;2024-02-21T12:18:57;5.18;;;2.55;;
73938;SDS011;62291;47.554;8.504;2024-02-21T12:21:32;2.80;;;1.80;;
73938;SDS011;62291;47.554;8.504;2024-02-21T12:24:23;3.45;;;1.90;;
73938;SDS011;62291;47.554;8.504;2024-02-21T12:26:52;3.42;;;1.70;;
73938;SDS011;62291;47.554;8.504;2024-02-21T12:29:19;2.58;;;1.70;;
73938;SDS011;62291;47.554;8.504;2024-02-21T12:31:49;2.38;;;1.63;;
73938;SDS011;62291;47.554;8.504;2024-02-21T12:34:18;4.18;;;1.67;;
73938;SDS011;62291;47.554;8.504;2024-02-21T12:36:44;3.85;;;2.22;;
73938;SDS011;62291;47.554;8.504;2024-02-21T12:39:13;3.55;;;1.70;;
73938;SDS011;62291;47.554;8.504;2024-02-21T12:41:39;2.15;;;1.60;;
73938;SDS011;62291;47.554;8.504;2024-02-21T12:44:08;2.88;;;1.50;;
73938;SDS011;62291;47.554;8.504;2024-02-21T12:46:34;2.80;;;1.58;;
73938;SDS011;62291;47.554;8.504;2024-02-21T12:49:03;3.97;;;1.48;;
73938;SDS011;62291;47.554;8.504;2024-02-21T12:51:33;3.85;;;1.35;;
73938;SDS011;62291;47.554;8.504;2024-02-21T12:53:59;3.35;;;1.73;;
73938;SDS011;62291;47.554;8.504;2024-02-21T12:56:25;3.97;;;1.60;;
73938;SDS011;62291;47.554;8.504;2024-02-21T12:58:52;3.10;;;1.70;;
73938;SDS011;62291;47.554;8.504;2024-02-21T13:01:18;3.03;;;1.30;;
73938;SDS011;62291;47.554;8.504;2024-02-21T13:03:44;2.53;;;1.33;;
73938;SDS011;62291;47.554;8.504;2024-02-21T13:06:11;2.65;;;1.33;;
73938;SDS011;62291;47.554;8.504;2024-02-21T13:08:37;3.33;;;1.45;;
73938;SDS011;62291;47.554;8.504;2024-02-21T13:11:03;3.35;;;1.20;;
73938;SDS011;62291;47.554;8.504;2024-02-21T13:13:30;4.15;;;1.33;;
73938;SDS011;62291;47.554;8.504;2024-02-21T13:15:56;3.42;;;1.77;;
73938;SDS011;62291;47.554;8.504;2024-02-21T13:18:22;2.78;;;1.35;;
73938;SDS011;62291;47.554;8.504;2024-02-21T13:20:48;4.00;;;1.10;;
73938;SDS011;62291;47.554;8.504;2024-02-21T13:23:14;2.85;;;1.50;;
73938;SDS011;62291;47.554;8.504;2024-02-21T13:25:39;1.98;;;1.20;;
73938;SDS011;62291;47.554;8.504;2024-02-21T13:28:08;3.03;;;0.95;;
73938;SDS011;62291;47.554;8.504;2024-02-21T13:30:34;2.45;;;1.13;;
73938;SDS011;62291;47.554;8.504;2024-02-21T13:33:00;2.75;;;1.30;;
73938;SDS011;62291;47.554;8.504;2024-02-21T13:35:28;4.18;;;1.20;;
73938;SDS011;62291;47.554;8.504;2024-02-21T13:37:53;2.85;;;1.10;;
73938;SDS011;62291;47.554;8.504;2024-02-21T13:40:19;1.73;;;0.88;;
73938;SDS011;62291;47.554;8.504;2024-02-21T13:42:45;2.45;;;1.10;;
73938;SDS011;62291;47.554;8.504;2024-02-21T13:45:11;3.15;;;0.88;;
73938;SDS011;62291;47.554;8.504;2024-02-21T13:47:39;2.45;;;0.75;;
73938;SDS011;62291;47.554;8.504;2024-02-21T13:50:08;1.50;;;0.80;;
73938;SDS011;62291;47.554;8.504;2024-02-21T13:52:35;3.55;;;0.70;;
73938;SDS011;62291;47.554;8.504;2024-02-21T13:55:02;1.45;;;0.75;;
73938;SDS011;62291;47.554;8.504;2024-02-21T13:57:28;1.40;;;0.70;;
73938;SDS011;62291;47.554;8.504;2024-02-21T13:59:57;2.05;;;0.80;;
73938;SDS011;62291;47.554;8.504;2024-02-21T14:02:22;2.15;;;0.70;;
73938;SDS011;62291;47.554;8.504;2024-02-21T14:11:27;1.75;;;0.80;;
73938;SDS011;62291;47.554;8.504;2024-02-21T14:13:53;4.28;;;0.70;;
73938;SDS011;62291;47.554;8.504;2024-02-21T14:16:22;1.42;;;0.57;;
73938;SDS011;62291;47.554;8.504;2024-02-21T14:18:48;3.25;;;0.80;;
73938;SDS011;62291;47.554;8.504;2024-02-21T14:21:13;1.77;;;0.70;;
73938;SDS011;62291;47.554;8.504;2024-02-21T14:23:39;3.50;;;1.00;;
73938;SDS011;62291;47.554;8.504;2024-02-21T14:26:05;2.47;;;0.80;;
73938;SDS011;62291;47.554;8.504;2024-02-21T14:28:31;3.53;;;1.00;;
73938;SDS011;62291;47.554;8.504;2024-02-21T14:30:59;4.88;;;0.90;;
73938;SDS011;62291;47.554;8.504;2024-02-21T14:33:26;1.48;;;0.80;;
73938;SDS011;62291;47.554;8.504;2024-02-21T14:35:52;2.28;;;0.70;;
73938;SDS011;62291;47.554;8.504;2024-02-21T14:38:18;2.17;;;0.90;;
73938;SDS011;62291;47.554;8.504;2024-02-21T14:40:44;1.27;;;0.85;;
73938;SDS011;62291;47.554;8.504;2024-02-21T14:43:10;4.28;;;1.20;;
73938;SDS011;62291;47.554;8.504;2024-02-21T14:45:36;2.28;;;0.82;;
73938;SDS011;62291;47.554;8.504;2024-02-21T14:48:05;3.38;;;1.00;;
73938;SDS011;62291;47.554;8.504;2024-02-21T14:50:32;4.32;;;1.15;;
73938;SDS011;62291;47.554;8.504;2024-02-21T14:52:57;3.25;;;1.15;;
73938;SDS011;62291;47.554;8.504;2024-02-21T14:55:24;2.60;;;1.10;;